sensor_id;sensor_type;location;lat;lon;timestamp;temperature;humidity
70676;DHT22;59069;52.242;20.900;2022-08-21T00:00:26;23.50;62.60
70676;DHT22;59069;52.242;20.900;2022-08-21T00:03:03;23.47;62.76
70676;DHT22;59069;52.242;20.900;2022-08-21T00:05:30;23.42;62.95
70676;DHT22;59069;52.242;20.900;2022-08-21T00:07:56;23.41;63.10
70676;DHT22;59069;52.242;20.900;2022-08-21T00:10:21;23.36;63.28
70676;DHT22;59069;52.242;20.900;2022-08-21T00:12:47;23.33;63.39
70676;DHT22;59069;52.242;20.900;2022-08-21T00:15:17;23.29;63.54
70676;DHT22;59069;52.242;20.900;2022-08-21T00:17:43;23.25;63.68
70676;DHT22;59069;52.242;20.900;2022-08-21T00:20:10;23.20;63.92
70676;DHT22;59069;52.242;20.900;2022-08-21T00:22:37;23.16;63.99
70676;DHT22;59069;52.242;20.900;2022-08-21T00:25:05;23.12;64.10
70676;DHT22;59069;52.242;20.900;2022-08-21T00:27:31;23.09;64.25
70676;DHT22;59069;52.242;20.900;2022-08-21T00:29:57;23.06;64.42
70676;DHT22;59069;52.242;20.900;2022-08-21T00:32:24;22.99;64.51
70676;DHT22;59069;52.242;20.900;2022-08-21T00:34:50;22.99;64.65
70676;DHT22;59069;52.242;20.900;2022-08-21T00:37:16;22.97;64.85
70676;DHT22;59069;52.242;20.900;2022-08-21T00:39:41;22.91;65.07
70676;DHT22;59069;52.242;20.900;2022-08-21T00:42:07;22.88;65.22
70676;DHT22;59069;52.242;20.900;2022-08-21T00:44:32;22.85;65.35
70676;DHT22;59069;52.242;20.900;2022-08-21T00:46:58;22.83;65.54
70676;DHT22;59069;52.242;20.900;2022-08-21T00:49:23;22.78;65.69
70676;DHT22;59069;52.242;20.900;2022-08-21T00:51:55;22.74;65.81
70676;DHT22;59069;52.242;20.900;2022-08-21T00:54:25;22.71;65.94
70676;DHT22;59069;52.242;20.900;2022-08-21T00:56:56;22.68;66.12
70676;DHT22;59069;52.242;20.900;2022-08-21T00:59:23;22.64;66.27
70676;DHT22;59069;52.242;20.900;2022-08-21T01:01:49;22.61;66.41
70676;DHT22;59069;52.242;20.900;2022-08-21T01:04:15;22.54;66.52
70676;DHT22;59069;52.242;20.900;2022-08-21T01:06:41;22.54;66.71
70676;DHT22;59069;52.242;20.900;2022-08-21T01:09:07;22.51;66.87
70676;DHT22;59069;52.242;20.900;2022-08-21T01:11:32;22.46;66.96
70676;DHT22;59069;52.242;20.900;2022-08-21T01:13:58;22.43;67.03
70676;DHT22;59069;52.242;20.900;2022-08-21T01:16:24;22.41;67.15
70676;DHT22;59069;52.242;20.900;2022-08-21T01:18:50;22.40;67.26
70676;DHT22;59069;52.242;20.900;2022-08-21T01:21:19;22.36;67.40
70676;DHT22;59069;52.242;20.900;2022-08-21T01:23:49;22.36;67.53
70676;DHT22;59069;52.242;20.900;2022-08-21T01:26:18;22.30;67.63
70676;DHT22;59069;52.242;20.900;2022-08-21T01:28:49;22.27;67.80
70676;DHT22;59069;52.242;20.900;2022-08-21T01:31:17;22.27;67.87
70676;DHT22;59069;52.242;20.900;2022-08-21T01:33:44;22.26;67.89
70676;DHT22;59069;52.242;20.900;2022-08-21T01:36:10;22.27;67.88
70676;DHT22;59069;52.242;20.900;2022-08-21T01:38:35;22.23;67.95
70676;DHT22;59069;52.242;20.900;2022-08-21T01:41:00;22.20;68.06
70676;DHT22;59069;52.242;20.900;2022-08-21T01:43:26;22.16;68.19
70676;DHT22;59069;52.242;20.900;2022-08-21T01:45:51;22.14;68.38
70676;DHT22;59069;52.242;20.900;2022-08-21T01:48:17;22.13;68.47
70676;DHT22;59069;52.242;20.900;2022-08-21T01:50:42;22.09;68.55
70676;DHT22;59069;52.242;20.900;2022-08-21T01:53:08;22.06;68.68
70676;DHT22;59069;52.242;20.900;2022-08-21T01:55:33;22.07;68.75
70676;DHT22;59069;52.242;20.900;2022-08-21T01:57:59;22.03;68.78
70676;DHT22;59069;52.242;20.900;2022-08-21T02:00:25;22.03;68.85
70676;DHT22;59069;52.242;20.900;2022-08-21T02:02:51;22.00;68.91
70676;DHT22;59069;52.242;20.900;2022-08-21T02:05:17;21.96;68.96
70676;DHT22;59069;52.242;20.900;2022-08-21T02:07:47;21.96;69.00
70676;DHT22;59069;52.242;20.900;2022-08-21T02:10:15;21.90;69.11
70676;DHT22;59069;52.242;20.900;2022-08-21T02:12:41;21.88;69.25
70676;DHT22;59069;52.242;20.900;2022-08-21T02:15:07;21.89;69.21
70676;DHT22;59069;52.242;20.900;2022-08-21T02:17:44;21.85;69.26
70676;DHT22;59069;52.242;20.900;2022-08-21T02:20:20;21.83;69.30
70676;DHT22;59069;52.242;20.900;2022-08-21T02:22:45;21.82;69.45
70676;DHT22;59069;52.242;20.900;2022-08-21T02:25:11;21.76;69.50
70676;DHT22;59069;52.242;20.900;2022-08-21T02:27:42;21.74;69.61
70676;DHT22;59069;52.242;20.900;2022-08-21T02:30:11;21.69;69.71
70676;DHT22;59069;52.242;20.900;2022-08-21T02:32:37;21.69;69.77
70676;DHT22;59069;52.242;20.900;2022-08-21T02:35:03;21.66;69.86
70676;DHT22;59069;52.242;20.900;2022-08-21T02:37:28;21.66;69.90
70676;DHT22;59069;52.242;20.900;2022-08-21T02:39:54;21.62;69.99
70676;DHT22;59069;52.242;20.900;2022-08-21T02:42:19;21.59;70.03
70676;DHT22;59069;52.242;20.900;2022-08-21T02:44:45;21.56;70.18
70676;DHT22;59069;52.242;20.900;2022-08-21T02:47:10;21.54;70.27
70676;DHT22;59069;52.242;20.900;2022-08-21T02:49:35;21.49;70.32
70676;DHT22;59069;52.242;20.900;2022-08-21T02:52:01;21.49;70.45
70676;DHT22;59069;52.242;20.900;2022-08-21T02:54:26;21.48;70.51
70676;DHT22;59069;52.242;20.900;2022-08-21T02:56:52;21.48;70.57
70676;DHT22;59069;52.242;20.900;2022-08-21T02:59:17;21.48;70.57
70676;DHT22;59069;52.242;20.900;2022-08-21T03:01:43;21.45;70.64
70676;DHT22;59069;52.242;20.900;2022-08-21T03:04:09;21.44;70.71
70676;DHT22;59069;52.242;20.900;2022-08-21T03:06:34;21.41;70.78
70676;DHT22;59069;52.242;20.900;2022-08-21T03:09:00;21.41;70.76
70676;DHT22;59069;52.242;20.900;2022-08-21T03:11:25;21.38;70.88
70676;DHT22;59069;52.242;20.900;2022-08-21T03:13:51;21.35;70.89
70676;DHT22;59069;52.242;20.900;2022-08-21T03:16:17;21.34;70.98
70676;DHT22;59069;52.242;20.900;2022-08-21T03:18:44;21.32;71.12
70676;DHT22;59069;52.242;20.900;2022-08-21T03:21:10;21.34;71.19
70676;DHT22;59069;52.242;20.900;2022-08-21T03:23:36;21.32;71.35
70676;DHT22;59069;52.242;20.900;2022-08-21T03:26:01;21.31;71.42
70676;DHT22;59069;52.242;20.900;2022-08-21T03:28:27;21.31;71.36
70676;DHT22;59069;52.242;20.900;2022-08-21T03:30:53;21.28;71.38
70676;DHT22;59069;52.242;20.900;2022-08-21T03:33:19;21.27;71.41
70676;DHT22;59069;52.242;20.900;2022-08-21T03:35:59;21.25;71.56
70676;DHT22;59069;52.242;20.900;2022-08-21T03:38:26;21.25;71.65
70676;DHT22;59069;52.242;20.900;2022-08-21T03:40:53;21.21;71.74
70676;DHT22;59069;52.242;20.900;2022-08-21T03:43:18;21.21;71.78
70676;DHT22;59069;52.242;20.900;2022-08-21T03:45:43;21.20;71.85
70676;DHT22;59069;52.242;20.900;2022-08-21T03:48:09;21.21;71.90
70676;DHT22;59069;52.242;20.900;2022-08-21T03:50:38;21.18;71.90
70676;DHT22;59069;52.242;20.900;2022-08-21T03:53:04;21.23;71.95
70676;DHT22;59069;52.242;20.900;2022-08-21T03:55:30;21.20;72.02
70676;DHT22;59069;52.242;20.900;2022-08-21T03:57:55;21.24;72.09
70676;DHT22;59069;52.242;20.900;2022-08-21T04:00:21;21.24;72.11
70676;DHT22;59069;52.242;20.900;2022-08-21T04:02:47;21.23;72.02
70676;DHT22;59069;52.242;20.900;2022-08-21T04:05:14;21.23;72.05
70676;DHT22;59069;52.242;20.900;2022-08-21T04:07:58;21.25;72.14
70676;DHT22;59069;52.242;20.900;2022-08-21T04:10:26;21.25;72.14
70676;DHT22;59069;52.242;20.900;2022-08-21T04:12:53;21.27;72.10
70676;DHT22;59069;52.242;20.900;2022-08-21T04:15:19;21.30;72.00
70676;DHT22;59069;52.242;20.900;2022-08-21T04:17:45;21.31;72.04
70676;DHT22;59069;52.242;20.900;2022-08-21T04:20:10;21.31;72.05
70676;DHT22;59069;52.242;20.900;2022-08-21T04:22:35;21.38;72.00
70676;DHT22;59069;52.242;20.900;2022-08-21T04:25:01;21.38;72.00
70676;DHT22;59069;52.242;20.900;2022-08-21T04:27:26;21.41;71.87
70676;DHT22;59069;52.242;20.900;2022-08-21T04:29:52;21.42;71.84
70676;DHT22;59069;52.242;20.900;2022-08-21T04:32:24;21.44;71.78
70676;DHT22;59069;52.242;20.900;2022-08-21T04:34:50;21.46;71.74
70676;DHT22;59069;52.242;20.900;2022-08-21T04:37:16;21.46;71.66
70676;DHT22;59069;52.242;20.900;2022-08-21T04:39:41;21.46;71.57
70676;DHT22;59069;52.242;20.900;2022-08-21T04:42:07;21.51;71.50
70676;DHT22;59069;52.242;20.900;2022-08-21T04:44:34;21.55;71.41
70676;DHT22;59069;52.242;20.900;2022-08-21T04:46:59;21.58;71.36
70676;DHT22;59069;52.242;20.900;2022-08-21T04:49:25;21.65;71.31
70676;DHT22;59069;52.242;20.900;2022-08-21T04:51:50;21.71;71.23
70676;DHT22;59069;52.242;20.900;2022-08-21T04:54:20;21.75;71.04
70676;DHT22;59069;52.242;20.900;2022-08-21T04:56:56;21.83;70.82
70676;DHT22;59069;52.242;20.900;2022-08-21T04:59:28;21.90;70.58
70676;DHT22;59069;52.242;20.900;2022-08-21T05:01:55;21.95;70.31
70676;DHT22;59069;52.242;20.900;2022-08-21T05:04:24;22.05;70.30
70676;DHT22;59069;52.242;20.900;2022-08-21T05:06:51;22.12;70.35
70676;DHT22;59069;52.242;20.900;2022-08-21T05:09:18;22.21;70.00
70676;DHT22;59069;52.242;20.900;2022-08-21T05:11:44;22.30;69.46
70676;DHT22;59069;52.242;20.900;2022-08-21T05:14:11;22.29;69.22
70676;DHT22;59069;52.242;20.900;2022-08-21T05:16:37;22.34;69.10
70676;DHT22;59069;52.242;20.900;2022-08-21T05:19:06;22.41;68.93
70676;DHT22;59069;52.242;20.900;2022-08-21T05:21:32;22.43;68.69
70676;DHT22;59069;52.242;20.900;2022-08-21T05:23:58;22.47;68.43
70676;DHT22;59069;52.242;20.900;2022-08-21T05:26:23;22.48;68.53
70676;DHT22;59069;52.242;20.900;2022-08-21T05:28:49;22.53;68.47
70676;DHT22;59069;52.242;20.900;2022-08-21T05:31:14;22.57;68.39
70676;DHT22;59069;52.242;20.900;2022-08-21T05:33:39;22.60;68.30
70676;DHT22;59069;52.242;20.900;2022-08-21T05:36:05;22.61;68.13
70676;DHT22;59069;52.242;20.900;2022-08-21T05:38:30;22.56;67.99
70676;DHT22;59069;52.242;20.900;2022-08-21T05:40:56;22.56;68.07
70676;DHT22;59069;52.242;20.900;2022-08-21T05:43:21;22.54;68.09
70676;DHT22;59069;52.242;20.900;2022-08-21T05:45:46;22.56;68.29
70676;DHT22;59069;52.242;20.900;2022-08-21T05:48:14;22.58;68.24
70676;DHT22;59069;52.242;20.900;2022-08-21T05:50:40;22.64;68.16
70676;DHT22;59069;52.242;20.900;2022-08-21T05:53:06;22.67;68.10
70676;DHT22;59069;52.242;20.900;2022-08-21T05:55:31;22.77;68.18
70676;DHT22;59069;52.242;20.900;2022-08-21T05:57:57;22.83;67.97
70676;DHT22;59069;52.242;20.900;2022-08-21T06:00:22;22.87;67.77
70676;DHT22;59069;52.242;20.900;2022-08-21T06:02:49;22.97;67.74
70676;DHT22;59069;52.242;20.900;2022-08-21T06:05:16;23.05;67.84
70676;DHT22;59069;52.242;20.900;2022-08-21T06:07:42;23.18;67.58
70676;DHT22;59069;52.242;20.900;2022-08-21T06:10:07;23.25;67.25
70676;DHT22;59069;52.242;20.900;2022-08-21T06:12:33;23.33;67.11
70676;DHT22;59069;52.242;20.900;2022-08-21T06:14:58;23.42;67.11
70676;DHT22;59069;52.242;20.900;2022-08-21T06:17:23;23.50;66.88
70676;DHT22;59069;52.242;20.900;2022-08-21T06:19:52;23.57;66.57
70676;DHT22;59069;52.242;20.900;2022-08-21T06:22:18;23.66;66.22
70676;DHT22;59069;52.242;20.900;2022-08-21T06:24:44;23.76;66.03
70676;DHT22;59069;52.242;20.900;2022-08-21T06:27:09;23.83;65.43
70676;DHT22;59069;52.242;20.900;2022-08-21T06:29:35;23.93;65.33
70676;DHT22;59069;52.242;20.900;2022-08-21T06:32:01;24.03;65.10
70676;DHT22;59069;52.242;20.900;2022-08-21T06:34:28;24.14;64.46
70676;DHT22;59069;52.242;20.900;2022-08-21T06:36:53;24.28;64.57
70676;DHT22;59069;52.242;20.900;2022-08-21T06:39:18;24.41;64.12
70676;DHT22;59069;52.242;20.900;2022-08-21T06:41:44;24.48;63.50
70676;DHT22;59069;52.242;20.900;2022-08-21T06:44:10;24.52;62.97
70676;DHT22;59069;52.242;20.900;2022-08-21T06:46:36;24.49;62.55
70676;DHT22;59069;52.242;20.900;2022-08-21T06:49:01;24.47;62.62
70676;DHT22;59069;52.242;20.900;2022-08-21T06:51:27;24.52;62.44
70676;DHT22;59069;52.242;20.900;2022-08-21T06:53:53;24.65;62.38
70676;DHT22;59069;52.242;20.900;2022-08-21T06:56:19;24.78;62.15
70676;DHT22;59069;52.242;20.900;2022-08-21T06:58:45;24.88;61.67
70676;DHT22;59069;52.242;20.900;2022-08-21T07:01:10;24.99;61.29
70676;DHT22;59069;52.242;20.900;2022-08-21T07:03:38;25.10;61.33
70676;DHT22;59069;52.242;20.900;2022-08-21T07:06:05;25.18;61.06
70676;DHT22;59069;52.242;20.900;2022-08-21T07:08:31;25.15;60.61
70676;DHT22;59069;52.242;20.900;2022-08-21T07:10:59;25.18;60.66
70676;DHT22;59069;52.242;20.900;2022-08-21T07:13:24;25.27;60.91
70676;DHT22;59069;52.242;20.900;2022-08-21T07:15:50;25.39;61.07
70676;DHT22;59069;52.242;20.900;2022-08-21T07:18:16;25.50;60.60
70676;DHT22;59069;52.242;20.900;2022-08-21T07:20:41;25.57;60.08
70676;DHT22;59069;52.242;20.900;2022-08-21T07:23:10;25.73;60.08
70676;DHT22;59069;52.242;20.900;2022-08-21T07:25:37;25.85;59.29
70676;DHT22;59069;52.242;20.900;2022-08-21T07:28:02;25.98;58.92
70676;DHT22;59069;52.242;20.900;2022-08-21T07:30:28;26.05;58.75
70676;DHT22;59069;52.242;20.900;2022-08-21T07:32:54;26.12;59.10
70676;DHT22;59069;52.242;20.900;2022-08-21T07:35:20;26.25;58.62
70676;DHT22;59069;52.242;20.900;2022-08-21T07:37:46;26.42;58.29
70676;DHT22;59069;52.242;20.900;2022-08-21T07:40:13;26.53;58.06
70676;DHT22;59069;52.242;20.900;2022-08-21T07:42:42;26.64;57.36
70676;DHT22;59069;52.242;20.900;2022-08-21T07:45:09;26.76;57.19
70676;DHT22;59069;52.242;20.900;2022-08-21T07:47:34;26.93;56.89
70676;DHT22;59069;52.242;20.900;2022-08-21T07:49:59;27.10;56.84
70676;DHT22;59069;52.242;20.900;2022-08-21T07:52:25;27.24;55.95
70676;DHT22;59069;52.242;20.900;2022-08-21T07:54:50;27.33;55.97
70676;DHT22;59069;52.242;20.900;2022-08-21T07:57:16;27.51;55.97
70676;DHT22;59069;52.242;20.900;2022-08-21T07:59:41;27.77;57.83
70676;DHT22;59069;52.242;20.900;2022-08-21T08:02:06;28.10;56.15
70676;DHT22;59069;52.242;20.900;2022-08-21T08:04:32;28.50;56.05
70676;DHT22;59069;52.242;20.900;2022-08-21T08:06:57;29.00;54.48
70676;DHT22;59069;52.242;20.900;2022-08-21T08:09:23;29.52;51.53
70676;DHT22;59069;52.242;20.900;2022-08-21T08:11:48;30.17;48.95
70676;DHT22;59069;52.242;20.900;2022-08-21T08:14:13;30.81;47.16
70676;DHT22;59069;52.242;20.900;2022-08-21T08:16:40;31.42;45.39
70676;DHT22;59069;52.242;20.900;2022-08-21T08:19:05;32.03;44.47
70676;DHT22;59069;52.242;20.900;2022-08-21T08:21:31;32.66;43.75
70676;DHT22;59069;52.242;20.900;2022-08-21T08:23:57;33.31;42.50
70676;DHT22;59069;52.242;20.900;2022-08-21T08:26:23;33.90;40.70
70676;DHT22;59069;52.242;20.900;2022-08-21T08:28:48;34.39;39.11
70676;DHT22;59069;52.242;20.900;2022-08-21T08:31:14;34.67;38.48
70676;DHT22;59069;52.242;20.900;2022-08-21T08:33:39;34.89;38.14
70676;DHT22;59069;52.242;20.900;2022-08-21T08:36:05;35.33;36.94
70676;DHT22;59069;52.242;20.900;2022-08-21T08:38:37;35.78;36.10
70676;DHT22;59069;52.242;20.900;2022-08-21T08:41:15;36.21;35.16
70676;DHT22;59069;52.242;20.900;2022-08-21T08:43:49;36.57;34.42
70676;DHT22;59069;52.242;20.900;2022-08-21T08:46:19;36.88;33.45
70676;DHT22;59069;52.242;20.900;2022-08-21T08:48:52;37.30;32.94
70676;DHT22;59069;52.242;20.900;2022-08-21T08:51:23;37.44;31.94
70676;DHT22;59069;52.242;20.900;2022-08-21T08:53:59;37.53;31.71
70676;DHT22;59069;52.242;20.900;2022-08-21T08:56:30;37.23;30.81
70676;DHT22;59069;52.242;20.900;2022-08-21T08:59:11;36.63;31.76
70676;DHT22;59069;52.242;20.900;2022-08-21T09:01:38;36.04;33.59
70676;DHT22;59069;52.242;20.900;2022-08-21T09:04:04;35.50;35.11
70676;DHT22;59069;52.242;20.900;2022-08-21T09:11:47;34.67;36.43
70676;DHT22;59069;52.242;20.900;2022-08-21T09:14:37;34.62;35.88
70676;DHT22;59069;52.242;20.900;2022-08-21T09:25:02;34.86;35.39
70676;DHT22;59069;52.242;20.900;2022-08-21T09:27:32;34.42;37.17
70676;DHT22;59069;52.242;20.900;2022-08-21T09:29:58;34.08;36.49
70676;DHT22;59069;52.242;20.900;2022-08-21T09:32:28;33.60;37.24
70676;DHT22;59069;52.242;20.900;2022-08-21T09:37:23;33.15;39.56
70676;DHT22;59069;52.242;20.900;2022-08-21T09:39:49;33.09;39.70
70676;DHT22;59069;52.242;20.900;2022-08-21T09:42:22;32.68;39.00
70676;DHT22;59069;52.242;20.900;2022-08-21T09:44:48;32.11;40.01
70676;DHT22;59069;52.242;20.900;2022-08-21T09:47:13;31.67;41.15
70676;DHT22;59069;52.242;20.900;2022-08-21T09:49:40;31.45;44.43
70676;DHT22;59069;52.242;20.900;2022-08-21T09:52:22;31.54;43.37
70676;DHT22;59069;52.242;20.900;2022-08-21T09:54:52;31.63;41.69
70676;DHT22;59069;52.242;20.900;2022-08-21T09:57:28;31.64;41.85
70676;DHT22;59069;52.242;20.900;2022-08-21T10:02:44;31.70;41.53
70676;DHT22;59069;52.242;20.900;2022-08-21T10:05:23;31.50;41.63
70676;DHT22;59069;52.242;20.900;2022-08-21T10:07:48;31.19;41.89
70676;DHT22;59069;52.242;20.900;2022-08-21T10:10:15;30.72;42.81
70676;DHT22;59069;52.242;20.900;2022-08-21T10:21:04;29.25;47.04
70676;DHT22;59069;52.242;20.900;2022-08-21T10:26:38;28.73;48.55
70676;DHT22;59069;52.242;20.900;2022-08-21T10:35:15;28.22;50.22
70676;DHT22;59069;52.242;20.900;2022-08-21T10:40:27;27.98;50.02
70676;DHT22;59069;52.242;20.900;2022-08-21T10:45:38;27.96;49.35
70676;DHT22;59069;52.242;20.900;2022-08-21T10:48:22;27.99;49.88
70676;DHT22;59069;52.242;20.900;2022-08-21T10:50:55;28.01;50.47
70676;DHT22;59069;52.242;20.900;2022-08-21T11:01:19;27.82;51.00
70676;DHT22;59069;52.242;20.900;2022-08-21T11:03:53;27.77;51.08
70676;DHT22;59069;52.242;20.900;2022-08-21T11:06:29;27.75;51.07
70676;DHT22;59069;52.242;20.900;2022-08-21T11:09:04;27.69;50.95
70676;DHT22;59069;52.242;20.900;2022-08-21T11:11:38;27.63;50.97
70676;DHT22;59069;52.242;20.900;2022-08-21T11:14:17;27.66;51.18
70676;DHT22;59069;52.242;20.900;2022-08-21T11:17:02;27.66;51.15
70676;DHT22;59069;52.242;20.900;2022-08-21T11:19:35;27.72;51.07
70676;DHT22;59069;52.242;20.900;2022-08-21T11:22:28;27.79;50.74
70676;DHT22;59069;52.242;20.900;2022-08-21T11:25:08;27.85;50.85
70676;DHT22;59069;52.242;20.900;2022-08-21T11:27:58;27.98;50.90
70676;DHT22;59069;52.242;20.900;2022-08-21T11:30:32;28.17;50.67
70676;DHT22;59069;52.242;20.900;2022-08-21T11:33:10;28.30;49.66
70676;DHT22;59069;52.242;20.900;2022-08-21T11:35:51;28.60;50.10
70676;DHT22;59069;52.242;20.900;2022-08-21T11:38:41;28.93;47.88
70676;DHT22;59069;52.242;20.900;2022-08-21T11:43:48;29.72;47.12
70676;DHT22;59069;52.242;20.900;2022-08-21T11:57:24;30.21;44.94
70676;DHT22;59069;52.242;20.900;2022-08-21T12:02:36;30.18;45.21
70676;DHT22;59069;52.242;20.900;2022-08-21T12:05:06;30.28;44.59
70676;DHT22;59069;52.242;20.900;2022-08-21T12:07:39;30.38;44.60
70676;DHT22;59069;52.242;20.900;2022-08-21T12:10:08;30.49;44.42
70676;DHT22;59069;52.242;20.900;2022-08-21T12:12:38;30.58;43.90
70676;DHT22;59069;52.242;20.900;2022-08-21T12:18:01;30.64;43.15
70676;DHT22;59069;52.242;20.900;2022-08-21T12:20:34;30.57;43.02
70676;DHT22;59069;52.242;20.900;2022-08-21T12:25:41;30.64;42.41
70676;DHT22;59069;52.242;20.900;2022-08-21T12:28:23;30.81;42.43
70676;DHT22;59069;52.242;20.900;2022-08-21T12:30:50;30.91;42.18
70676;DHT22;59069;52.242;20.900;2022-08-21T12:41:15;30.99;41.83
70676;DHT22;59069;52.242;20.900;2022-08-21T12:43:44;30.76;42.01
70676;DHT22;59069;52.242;20.900;2022-08-21T12:46:17;30.53;42.30
70676;DHT22;59069;52.242;20.900;2022-08-21T12:48:54;30.20;42.34
70676;DHT22;59069;52.242;20.900;2022-08-21T12:54:41;30.81;45.94
70676;DHT22;59069;52.242;20.900;2022-08-21T12:57:08;32.28;42.86
70676;DHT22;59069;52.242;20.900;2022-08-21T12:59:38;33.68;38.18
70676;DHT22;59069;52.242;20.900;2022-08-21T13:02:15;34.72;35.38
70676;DHT22;59069;52.242;20.900;2022-08-21T13:04:42;35.04;33.91
70676;DHT22;59069;52.242;20.900;2022-08-21T13:07:11;35.91;36.16
70676;DHT22;59069;52.242;20.900;2022-08-21T13:10:24;37.64;32.65
70676;DHT22;59069;52.242;20.900;2022-08-21T13:12:48;38.02;28.80
70676;DHT22;59069;52.242;20.900;2022-08-21T13:15:14;36.98;29.27
70676;DHT22;59069;52.242;20.900;2022-08-21T13:17:48;35.85;31.40
70676;DHT22;59069;52.242;20.900;2022-08-21T13:20:25;34.73;33.63
70676;DHT22;59069;52.242;20.900;2022-08-21T13:22:52;33.84;35.27
70676;DHT22;59069;52.242;20.900;2022-08-21T13:25:21;33.07;36.67
70676;DHT22;59069;52.242;20.900;2022-08-21T13:28:05;32.58;38.14
70676;DHT22;59069;52.242;20.900;2022-08-21T13:30:32;32.14;38.52
70676;DHT22;59069;52.242;20.900;2022-08-21T13:33:00;32.25;40.70
70676;DHT22;59069;52.242;20.900;2022-08-21T13:35:52;34.16;39.23
70676;DHT22;59069;52.242;20.900;2022-08-21T13:38:25;35.77;34.64
70676;DHT22;59069;52.242;20.900;2022-08-21T13:40:55;36.14;32.43
70676;DHT22;59069;52.242;20.900;2022-08-21T13:43:27;35.92;32.01
70676;DHT22;59069;52.242;20.900;2022-08-21T13:45:55;35.44;33.09
70676;DHT22;59069;52.242;20.900;2022-08-21T13:48:27;35.27;34.81
70676;DHT22;59069;52.242;20.900;2022-08-21T13:50:54;35.41;34.34
70676;DHT22;59069;52.242;20.900;2022-08-21T13:53:30;35.24;34.71
70676;DHT22;59069;52.242;20.900;2022-08-21T13:55:57;35.87;35.00
70676;DHT22;59069;52.242;20.900;2022-08-21T13:58:41;36.86;32.89
70676;DHT22;59069;52.242;20.900;2022-08-21T14:01:19;37.81;31.55
70676;DHT22;59069;52.242;20.900;2022-08-21T14:03:47;38.41;30.91
70676;DHT22;59069;52.242;20.900;2022-08-21T14:06:21;39.42;29.29
70676;DHT22;59069;52.242;20.900;2022-08-21T14:09:41;40.24;28.06
70676;DHT22;59069;52.242;20.900;2022-08-21T14:11:47;41.15;26.94
70676;DHT22;59069;52.242;20.900;2022-08-21T14:14:22;41.65;25.85
70676;DHT22;59069;52.242;20.900;2022-08-21T14:16:55;42.03;25.30
70676;DHT22;59069;52.242;20.900;2022-08-21T14:19:26;42.30;24.83
70676;DHT22;59069;52.242;20.900;2022-08-21T14:21:51;42.71;24.47
70676;DHT22;59069;52.242;20.900;2022-08-21T14:26:54;42.43;23.64
70676;DHT22;59069;52.242;20.900;2022-08-21T14:29:24;41.08;24.48
70676;DHT22;59069;52.242;20.900;2022-08-21T14:31:53;40.91;26.60
70676;DHT22;59069;52.242;20.900;2022-08-21T14:34:21;40.83;26.31
70676;DHT22;59069;52.242;20.900;2022-08-21T14:36:48;39.38;26.46
70676;DHT22;59069;52.242;20.900;2022-08-21T14:39:13;38.98;29.42
70676;DHT22;59069;52.242;20.900;2022-08-21T14:41:39;39.64;28.70
70676;DHT22;59069;52.242;20.900;2022-08-21T14:44:05;40.02;27.41
70676;DHT22;59069;52.242;20.900;2022-08-21T14:46:33;40.43;26.92
70676;DHT22;59069;52.242;20.900;2022-08-21T14:49:01;40.58;26.28
70676;DHT22;59069;52.242;20.900;2022-08-21T14:51:26;40.35;26.40
70676;DHT22;59069;52.242;20.900;2022-08-21T14:53:51;40.07;26.79
70676;DHT22;59069;52.242;20.900;2022-08-21T14:56:17;40.10;26.87
70676;DHT22;59069;52.242;20.900;2022-08-21T14:58:45;40.05;26.70
70676;DHT22;59069;52.242;20.900;2022-08-21T15:01:12;39.92;26.87
70676;DHT22;59069;52.242;20.900;2022-08-21T15:03:38;39.92;26.49
70676;DHT22;59069;52.242;20.900;2022-08-21T15:06:05;39.78;26.77
70676;DHT22;59069;52.242;20.900;2022-08-21T15:08:31;39.66;26.73
70676;DHT22;59069;52.242;20.900;2022-08-21T15:10:57;39.42;26.92
70676;DHT22;59069;52.242;20.900;2022-08-21T15:13:23;39.27;27.57
70676;DHT22;59069;52.242;20.900;2022-08-21T15:15:50;39.10;27.70
70676;DHT22;59069;52.242;20.900;2022-08-21T15:18:18;39.11;27.91
70676;DHT22;59069;52.242;20.900;2022-08-21T15:20:44;38.90;27.49
70676;DHT22;59069;52.242;20.900;2022-08-21T15:23:10;38.49;27.89
70676;DHT22;59069;52.242;20.900;2022-08-21T15:25:35;38.25;28.12
70676;DHT22;59069;52.242;20.900;2022-08-21T15:28:02;37.96;28.62
70676;DHT22;59069;52.242;20.900;2022-08-21T15:30:29;37.71;28.74
70676;DHT22;59069;52.242;20.900;2022-08-21T15:32:55;37.53;28.82
70676;DHT22;59069;52.242;20.900;2022-08-21T15:35:21;37.14;29.28
70676;DHT22;59069;52.242;20.900;2022-08-21T15:37:46;36.63;29.82
70676;DHT22;59069;52.242;20.900;2022-08-21T15:40:12;36.06;30.51
70676;DHT22;59069;52.242;20.900;2022-08-21T15:42:40;35.62;31.55
70676;DHT22;59069;52.242;20.900;2022-08-21T15:45:06;35.34;32.07
70676;DHT22;59069;52.242;20.900;2022-08-21T15:47:34;35.06;32.45
70676;DHT22;59069;52.242;20.900;2022-08-21T15:50:01;34.79;32.82
70676;DHT22;59069;52.242;20.900;2022-08-21T15:52:27;34.55;33.13
70676;DHT22;59069;52.242;20.900;2022-08-21T15:54:52;34.31;33.42
70676;DHT22;59069;52.242;20.900;2022-08-21T15:57:21;34.11;34.04
70676;DHT22;59069;52.242;20.900;2022-08-21T15:59:50;33.82;34.50
70676;DHT22;59069;52.242;20.900;2022-08-21T16:02:27;33.50;34.95
70676;DHT22;59069;52.242;20.900;2022-08-21T16:04:54;33.17;35.49
70676;DHT22;59069;52.242;20.900;2022-08-21T16:07:19;32.80;36.41
70676;DHT22;59069;52.242;20.900;2022-08-21T16:09:45;32.52;36.92
70676;DHT22;59069;52.242;20.900;2022-08-21T16:12:15;32.21;37.30
70676;DHT22;59069;52.242;20.900;2022-08-21T16:14:42;31.98;37.78
70676;DHT22;59069;52.242;20.900;2022-08-21T16:17:08;31.70;38.24
70676;DHT22;59069;52.242;20.900;2022-08-21T16:19:34;31.42;38.85
70676;DHT22;59069;52.242;20.900;2022-08-21T16:22:01;31.00;39.59
70676;DHT22;59069;52.242;20.900;2022-08-21T16:24:26;30.61;40.43
70676;DHT22;59069;52.242;20.900;2022-08-21T16:26:52;30.30;41.26
70676;DHT22;59069;52.242;20.900;2022-08-21T16:29:18;30.02;42.05
70676;DHT22;59069;52.242;20.900;2022-08-21T16:31:44;29.82;42.78
70676;DHT22;59069;52.242;20.900;2022-08-21T16:34:15;29.52;43.72
70676;DHT22;59069;52.242;20.900;2022-08-21T16:36:41;29.22;44.51
70676;DHT22;59069;52.242;20.900;2022-08-21T16:39:06;28.93;45.38
70676;DHT22;59069;52.242;20.900;2022-08-21T16:41:33;28.61;46.34
70676;DHT22;59069;52.242;20.900;2022-08-21T16:43:59;28.36;47.05
70676;DHT22;59069;52.242;20.900;2022-08-21T16:46:26;28.17;47.74